Time;durP1;ratioP1;P1;durP2;ratioP2;P2;SDS_P1;SDS_P2;PMS_P1;PMS_P2;Temp;Humidity;BMP_temperature;BMP_pressure;BME280_temperature;BME280_humidity;BME280_pressure;Samples;Min_cycle;Max_cycle;Signal;HPM_P1;HPM_P2
2023/01/01 00:08:19;;;;;;;10.20;7.70;;;;;;;11.07;80.19;98742.99;420751;1298;99268;-41
2023/01/01 00:18:27;;;;;;;13.80;7.80;;;;;;;11.06;79.92;98726.59;420817;1289;108638;-41
2023/01/01 00:28:35;;;;;;;14.50;8.20;;;;;;;11.05;79.83;98735.77;420831;1291;98817;-40
2023/01/01 00:38:43;;;;;;;18.20;7.70;;;;;;;10.99;79.55;98730.88;420789;1295;112228;-41
2023/01/01 00:48:50;;;;;;;10.50;7.70;;;;;;;11.04;79.15;98729.33;420864;1299;106793;-41
2023/01/01 00:58:58;;;;;;;9.30;7.00;;;;;;;11.19;78.87;98740.20;420847;1305;99217;-43
2023/01/01 01:09:08;;;;;;;11.40;7.70;;;;;;;11.24;78.66;98750.15;421051;1298;107662;-41
2023/01/01 01:19:17;;;;;;;10.90;6.80;;;;;;;11.17;78.45;98755.50;420855;1287;99245;-41
2023/01/01 01:29:23;;;;;;;;;;;;;;;11.16;78.35;98762.59;420887;1298;111339;-40
2023/01/01 01:39:29;;;;;;;11.80;7.40;;;;;;;11.18;78.29;98766.39;420713;1298;108122;-40
2023/01/01 01:49:36;;;;;;;10.30;7.40;;;;;;;11.25;78.17;98771.14;420943;1298;98854;-40
2023/01/01 02:09:55;;;;;;;8.70;6.40;;;;;;;11.26;77.38;98765.77;420682;1298;99155;-41
2023/01/01 02:20:05;;;;;;;11.10;6.70;;;;;;;11.22;77.44;98777.55;420830;1298;111298;-41
2023/01/01 02:30:14;;;;;;;9.70;7.10;;;;;;;11.18;77.44;98783.29;420793;1292;107366;-41
2023/01/01 02:40:24;;;;;;;14.40;7.70;;;;;;;11.13;77.03;98779.17;421472;1273;492252;-40
2023/01/01 02:50:32;;;;;;;11.00;7.10;;;;;;;11.08;76.83;98776.14;420766;1292;107135;-40
2023/01/01 03:00:40;;;;;;;9.70;6.70;;;;;;;11.08;76.93;98773.98;420961;1295;98836;-41
2023/01/01 03:10:58;;;;;;;11.50;7.90;;;;;;;11.09;76.87;98778.86;420928;1283;111913;-41
2023/01/01 03:21:08;;;;;;;10.50;6.90;;;;;;;10.99;76.68;98802.67;420873;1299;109399;-40
2023/01/01 03:31:16;;;;;;;10.60;6.50;;;;;;;10.96;76.49;98812.70;420939;1298;99238;-41
2023/01/01 03:41:21;;;;;;;10.40;6.00;;;;;;;10.96;76.43;98818.11;420851;1294;107877;-41
2023/01/01 03:51:32;;;;;;;7.90;5.30;;;;;;;11.12;76.29;98812.36;420751;1298;99256;-43
2023/01/01 04:01:40;;;;;;;7.60;5.00;;;;;;;11.29;76.06;98802.09;420778;1298;111556;-41
2023/01/01 04:12:03;;;;;;;9.30;5.30;;;;;;;11.39;75.76;98796.15;420889;1290;108337;-41
2023/01/01 04:22:10;;;;;;;8.20;4.80;;;;;;;11.55;75.35;98801.89;420943;1291;98856;-41
2023/01/01 04:32:17;;;;;;;6.30;4.90;;;;;;;11.60;75.09;98808.54;420916;1288;109428;-40
2023/01/01 04:42:25;;;;;;;9.20;5.70;;;;;;;11.63;75.06;98825.02;420933;1298;99217;-39
2023/01/01 04:52:32;;;;;;;6.00;4.50;;;;;;;11.76;74.73;98840.88;420794;1291;112102;-40
2023/01/01 05:02:39;;;;;;;6.20;5.00;;;;;;;11.80;74.48;98850.03;420797;1298;107587;-41
2023/01/01 05:12:46;;;;;;;6.60;5.00;;;;;;;11.73;74.51;98859.67;420903;1286;99595;-39
2023/01/01 05:22:53;;;;;;;9.60;6.40;;;;;;;11.69;74.07;98861.70;421044;1297;109212;-41
2023/01/01 05:33:00;;;;;;;8.00;5.20;;;;;;;11.64;73.64;98879.23;420776;1292;99096;-40
2023/01/01 05:43:06;;;;;;;7.30;5.40;;;;;;;11.59;73.48;98882.08;420948;1298;111934;-40
2023/01/01 05:53:14;;;;;;;8.40;5.10;;;;;;;11.45;73.67;98895.16;420894;1298;107114;-41
2023/01/01 06:03:21;;;;;;;7.70;5.30;;;;;;;11.28;73.66;98904.90;420941;1290;101561;-40
2023/01/01 06:13:29;;;;;;;8.40;5.40;;;;;;;11.12;73.81;98900.68;420980;1298;106762;-41
2023/01/01 06:23:36;;;;;;;10.20;5.60;;;;;;;10.97;73.85;98901.95;420914;1289;98183;-41
2023/01/01 06:33:44;;;;;;;8.60;5.30;;;;;;;10.89;73.82;98906.91;420950;1298;112322;-40
2023/01/01 06:43:51;;;;;;;7.80;5.30;;;;;;;10.86;73.97;98918.78;420893;1292;107683;-41
2023/01/01 06:53:58;;;;;;;7.50;6.30;;;;;;;10.79;74.15;98924.01;420997;1291;101602;-40
2023/01/01 07:14:13;;;;;;;11.80;7.60;;;;;;;10.51;74.31;98961.90;420940;1294;98048;-41
2023/01/01 07:24:21;;;;;;;10.00;6.20;;;;;;;10.45;74.29;98973.20;420964;1298;112736;-40
2023/01/01 07:34:29;;;;;;;12.80;7.00;;;;;;;10.50;74.45;98974.29;420751;1295;108658;-40
2023/01/01 07:44:36;;;;;;;14.00;8.20;;;;;;;10.52;74.51;98986.09;420907;1291;98582;-40
2023/01/01 07:54:43;;;;;;;12.50;8.20;;;;;;;10.44;74.42;99001.04;420934;1298;108708;-41
2023/01/01 08:04:50;;;;;;;18.30;10.70;;;;;;;10.40;74.26;99005.29;420933;1298;99239;-40
2023/01/01 08:14:57;;;;;;;13.90;8.70;;;;;;;10.43;74.20;99004.88;420846;1305;110942;-41
2023/01/01 08:25:03;;;;;;;12.50;8.20;;;;;;;10.67;74.44;99011.96;420756;1284;108736;-39
2023/01/01 08:35:11;;;;;;;15.90;8.90;;;;;;;11.11;74.32;99012.98;420843;1291;99158;-40
2023/01/01 08:45:18;;;;;;;14.30;8.60;;;;;;;11.44;74.19;99019.57;420855;1295;108076;-41
2023/01/01 08:55:26;;;;;;;15.90;9.50;;;;;;;12.10;74.24;99024.89;420932;1295;98049;-40
2023/01/01 09:05:33;;;;;;;17.20;9.40;;;;;;;13.12;74.10;99026.92;420798;1290;111030;-39
2023/01/01 09:25:48;;;;;;;13.20;7.90;;;;;;;13.43;72.16;99027.45;420959;1295;97953;-41
2023/01/01 09:35:55;;;;;;;14.40;8.00;;;;;;;13.40;71.48;99018.42;420780;1292;107960;-41
2023/01/01 09:46:06;;;;;;;12.80;8.80;;;;;;;13.32;71.35;99012.16;421044;1298;98614;-40
2023/01/01 09:56:15;;;;;;;15.70;7.90;;;;;;;13.69;70.73;99006.18;420933;1291;111433;-41
2023/01/01 10:06:24;;;;;;;13.40;8.00;;;;;;;14.03;70.22;99004.23;420928;1291;109327;-41
2023/01/01 10:16:30;;;;;;;13.40;8.20;;;;;;;14.25;70.07;99004.61;420945;1291;99383;-41
2023/01/01 10:26:40;;;;;;;10.20;7.50;;;;;;;14.38;69.78;99011.02;420845;1299;109539;-41
2023/01/01 10:36:47;;;;;;;11.70;7.90;;;;;;;14.43;68.96;99007.96;420932;1291;99224;-42
2023/01/01 10:46:55;;;;;;;10.60;6.90;;;;;;;14.37;68.67;98997.05;420936;1287;111254;-41
2023/01/01 11:07:19;;;;;;;13.30;7.90;;;;;;;14.17;67.78;98973.21;420902;1298;99226;-41
2023/01/01 11:17:28;;;;;;;15.30;8.50;;;;;;;14.14;67.91;98979.02;421046;1299;108556;-41
2023/01/01 11:27:33;;;;;;;13.20;7.40;;;;;;;14.15;67.55;98979.20;420955;1292;98815;-40
2023/01/01 11:37:42;;;;;;;13.20;8.10;;;;;;;14.16;67.91;98971.64;420891;1298;110229;-45
2023/01/01 11:47:51;;;;;;;;;;;;;;;14.14;67.92;98961.27;421037;1290;108162;-40
2023/01/01 11:57:59;;;;;;;11.60;8.10;;;;;;;14.08;67.86;98956.44;421082;1298;98827;-42
2023/01/01 12:08:14;;;;;;;12.30;7.80;;;;;;;14.12;68.11;98952.02;421015;1300;109410;-40
2023/01/01 12:18:22;;;;;;;11.50;7.40;;;;;;;14.22;68.14;98941.64;421002;1295;99293;-40
2023/01/01 12:28:29;;;;;;;14.90;9.30;;;;;;;14.28;67.81;98940.45;420885;1301;111662;-41
2023/01/01 12:38:39;;;;;;;12.30;7.70;;;;;;;14.26;67.43;98941.38;420877;1295;108017;-41
2023/01/01 12:49:00;;;;;;;11.30;6.90;;;;;;;14.17;67.06;98944.65;421034;1284;99303;-41
2023/01/01 12:59:10;;;;;;;11.70;7.30;;;;;;;14.11;67.06;98953.03;420970;1294;106590;-44
2023/01/01 13:09:18;;;;;;;10.70;7.10;;;;;;;14.08;67.15;98973.25;421015;1287;99385;-41
2023/01/01 13:19:24;;;;;;;14.90;8.40;;;;;;;14.02;67.27;98981.95;420861;1304;110490;-41
2023/01/01 13:29:44;;;;;;;10.40;6.30;;;;;;;13.93;67.02;98994.55;420915;1299;107496;-41
2023/01/01 13:50:13;;;;;;;16.50;6.90;;;;;;;13.56;67.17;99005.05;420932;1299;107231;-41
2023/01/01 14:00:20;;;;;;;10.00;6.20;;;;;;;13.32;67.55;99016.54;420883;1295;99116;-40
2023/01/01 14:30:44;;;;;;;11.90;8.20;;;;;;;12.78;68.57;99055.89;420980;1284;99269;-40
2023/01/01 14:41:02;;;;;;;21.90;12.10;;;;;;;12.54;68.80;99062.73;420685;1299;389737;-42
2023/01/01 14:51:12;;;;;;;34.70;19.20;;;;;;;12.26;69.17;99066.13;421004;1287;98762;-41
2023/01/01 15:01:22;;;;;;;26.90;17.00;;;;;;;11.99;69.44;99069.13;420971;1292;111192;-41
2023/01/01 15:11:29;;;;;;;58.50;24.80;;;;;;;11.79;69.72;99084.33;420888;1296;108801;-40
2023/01/01 15:21:40;;;;;;;65.50;19.10;;;;;;;11.69;70.01;99089.08;421031;1298;99226;-40
2023/01/01 15:31:53;;;;;;;28.90;15.20;;;;;;;11.59;70.30;99094.02;420987;1288;106762;-40
2023/01/01 15:42:00;;;;;;;30.50;15.40;;;;;;;11.45;70.43;99116.24;420740;1291;99215;-40
2023/01/01 15:52:15;;;;;;;27.90;13.80;;;;;;;11.29;70.67;99116.06;421012;1291;112002;-41
2023/01/01 16:02:29;;;;;;;41.00;17.00;;;;;;;11.17;70.76;99108.77;420793;1286;108793;-41
2023/01/01 16:12:37;;;;;;;30.30;15.50;;;;;;;11.13;70.92;99107.11;420977;1289;98832;-41
2023/01/01 16:22:45;;;;;;;23.70;13.00;;;;;;;11.10;71.30;99122.31;420951;1299;108088;-41
2023/01/01 16:32:52;;;;;;;21.10;12.40;;;;;;;11.03;71.58;99128.50;420884;1292;99313;-41
2023/01/01 16:42:59;;;;;;;24.50;13.90;;;;;;;10.90;71.69;99139.92;420946;1290;111036;-41
2023/01/01 16:53:07;;;;;;;27.20;12.70;;;;;;;10.85;71.70;99144.19;420841;1291;107685;-40
2023/01/01 17:03:14;;;;;;;29.20;14.50;;;;;;;10.88;71.85;99164.51;420846;1291;99151;-41
2023/01/01 17:13:21;;;;;;;27.70;14.70;;;;;;;10.87;72.02;99170.35;420820;1295;107572;-41
2023/01/01 17:23:27;;;;;;;28.10;14.90;;;;;;;10.77;72.19;99181.84;420866;1292;99229;-41
2023/01/01 17:33:36;;;;;;;30.90;14.80;;;;;;;10.67;72.35;99180.17;420861;1298;112335;-40
2023/01/01 17:43:45;;;;;;;25.80;13.70;;;;;;;10.62;72.45;99176.87;420759;1290;107528;-40
2023/01/01 17:53:51;;;;;;;;;;;;;;;10.64;72.60;99175.23;421003;1292;99255;-40
2023/01/01 18:04:00;;;;;;;22.80;12.40;;;;;;;10.64;72.81;99177.30;420943;1299;109422;-41
2023/01/01 18:14:09;;;;;;;24.30;14.90;;;;;;;10.56;72.88;99186.69;420972;1290;98027;-40
2023/01/01 18:24:16;;;;;;;22.30;12.90;;;;;;;10.44;72.94;99193.34;420983;1292;111877;-41
2023/01/01 18:34:22;;;;;;;26.40;15.10;;;;;;;10.36;72.91;99201.20;420825;1298;107466;-40
2023/01/01 18:44:30;;;;;;;24.70;12.70;;;;;;;10.36;73.12;99203.95;420879;1295;99224;-41
2023/01/01 18:54:38;;;;;;;29.20;16.00;;;;;;;10.36;73.19;99217.54;420869;1295;107372;-43
2023/01/01 19:04:46;;;;;;;26.40;14.20;;;;;;;10.26;73.35;99216.48;420748;1291;98018;-40
2023/01/01 19:14:54;;;;;;;26.80;14.00;;;;;;;10.16;73.36;99223.01;420921;1291;111671;-40
2023/01/01 19:25:18;;;;;;;29.20;16.00;;;;;;;10.12;73.58;99218.14;420860;1291;107687;-40
2023/01/01 19:35:25;;;;;;;25.80;14.10;;;;;;;10.16;73.75;99205.64;420667;1298;99048;-40
2023/01/01 19:45:33;;;;;;;22.00;13.50;;;;;;;10.15;73.87;99217.77;420890;1292;108483;-41
2023/01/01 19:55:41;;;;;;;30.50;16.60;;;;;;;10.04;73.99;99227.83;420918;1298;99239;-39
2023/01/01 20:05:48;;;;;;;31.90;15.90;;;;;;;9.98;74.10;99231.33;420840;1298;112138;-41
2023/01/01 20:15:55;;;;;;;29.80;14.60;;;;;;;10.00;74.20;99240.90;420828;1298;108275;-41
2023/01/01 20:46:36;;;;;;;21.40;12.30;;;;;;;9.91;74.65;99243.53;420918;1298;98056;-41
2023/01/01 20:56:44;;;;;;;23.30;9.70;;;;;;;9.88;74.74;99252.61;420790;1291;110832;-41
2023/01/01 21:06:51;;;;;;;18.70;11.20;;;;;;;9.89;74.82;99257.16;420915;1290;108612;-41
2023/01/01 21:16:57;;;;;;;15.10;9.70;;;;;;;9.89;74.98;99259.91;420953;1290;99248;-41
2023/01/01 21:27:01;;;;;;;22.50;14.20;;;;;;;9.83;75.15;99261.77;420838;1294;107862;-41
2023/01/01 21:37:06;;;;;;;17.90;9.20;;;;;;;9.76;75.37;99270.55;420829;1294;98387;-39
2023/01/01 21:47:17;;;;;;;18.20;9.40;;;;;;;9.75;75.40;99265.70;420822;1298;111910;-39
2023/01/01 21:57:26;;;;;;;21.00;9.70;;;;;;;9.73;75.51;99269.02;420882;1295;106464;-41
2023/01/01 22:07:36;;;;;;;16.70;8.70;;;;;;;9.70;75.68;99268.93;420849;1292;97966;-40
2023/01/01 22:18:15;;;;;;;15.20;8.90;;;;;;;9.62;75.80;99263.30;420896;1294;108215;-42
2023/01/01 22:28:21;;;;;;;17.70;9.40;;;;;;;9.59;75.69;99247.97;420863;1292;99217;-40
2023/01/01 22:38:28;;;;;;;18.30;9.80;;;;;;;9.60;75.75;99245.52;420871;1291;112285;-41
2023/01/01 22:48:32;;;;;;;12.90;7.90;;;;;;;9.64;75.93;99234.30;420817;1282;108592;-40
2023/01/01 22:58:40;;;;;;;12.60;7.30;;;;;;;9.69;76.09;99234.92;420878;1282;99241;-41
2023/01/01 23:08:47;;;;;;;10.90;6.90;;;;;;;9.63;76.06;99237.88;420835;1292;109011;-39
2023/01/01 23:18:54;;;;;;;13.10;7.40;;;;;;;9.56;76.05;99237.17;420891;1283;98469;-41
2023/01/01 23:29:03;;;;;;;10.10;7.00;;;;;;;9.54;76.09;99237.75;420833;1294;111653;-41
2023/01/01 23:39:10;;;;;;;9.30;6.00;;;;;;;9.51;76.21;99232.77;420767;1283;108650;-40
2023/01/01 23:49:18;;;;;;;11.40;7.00;;;;;;;9.40;76.38;99227.02;420814;1284;98311;-41
2023/01/01 23:59:26;;;;;;;15.90;8.80;;;;;;;9.24;76.58;99218.02;420862;1298;107732;-41
